Time;durP1;ratioP1;P1;durP2;ratioP2;P2;SDS_P1;SDS_P2;PMS_P1;PMS_P2;Temp;Humidity;BMP_temperature;BMP_pressure;BME280_temperature;BME280_humidity;BME280_pressure;Samples;Min_cycle;Max_cycle;Signal;HPM_P1;HPM_P2
2022/04/04 00:01:51;;;;;;;14.52;7.85;;;;;;;-0.64;100.00;101793.84;5239227;28;20628;-65
2022/04/04 00:04:22;;;;;;;13.43;8.05;;;;;;;-0.64;100.00;101791.22;5241446;28;20029;-65
2022/04/04 00:06:53;;;;;;;13.45;7.88;;;;;;;-0.64;100.00;101790.34;5243498;28;20029;-65
2022/04/04 00:09:25;;;;;;;12.43;8.02;;;;;;;-0.61;100.00;101785.94;5248732;28;20035;-65
2022/04/04 00:11:56;;;;;;;12.93;8.10;;;;;;;-0.66;100.00;101782.50;5243056;28;20505;-65
2022/04/04 00:14:27;;;;;;;15.63;9.00;;;;;;;-0.64;100.00;101778.13;5240522;28;20033;-65
2022/04/04 00:17:00;;;;;;;13.02;8.50;;;;;;;-0.66;100.00;101774.66;5239149;28;20075;-65
2022/04/04 00:19:31;;;;;;;14.27;8.52;;;;;;;-0.70;100.00;101774.72;5246022;28;20549;-64
2022/04/04 00:22:03;;;;;;;11.20;7.75;;;;;;;-0.68;100.00;101770.34;5245023;28;20123;-65
2022/04/04 00:24:36;;;;;;;14.32;8.90;;;;;;;-0.74;100.00;101760.81;5243790;28;20117;-65
2022/04/04 00:27:07;;;;;;;16.83;8.07;;;;;;;-0.73;100.00;101764.28;5237612;28;20070;-65
2022/04/04 00:29:38;;;;;;;15.27;8.68;;;;;;;-0.69;100.00;101758.09;5253178;28;20264;-65
2022/04/04 00:32:09;;;;;;;12.88;8.63;;;;;;;-0.73;100.00;101757.31;5242776;28;20067;-65
2022/04/04 00:34:40;;;;;;;12.40;8.13;;;;;;;-0.68;100.00;101759.84;5249657;28;20041;-65
2022/04/04 00:37:12;;;;;;;15.48;8.93;;;;;;;-0.72;100.00;101748.53;5251088;28;20063;-65
2022/04/04 00:39:44;;;;;;;12.32;8.68;;;;;;;-0.72;100.00;101750.31;5248353;28;20068;-65
2022/04/04 00:42:16;;;;;;;12.65;8.98;;;;;;;-0.69;100.00;101745.00;5253079;28;20033;-65
2022/04/04 00:44:47;;;;;;;13.45;8.75;;;;;;;-0.68;100.00;101744.97;5244394;28;20067;-65
2022/04/04 00:47:18;;;;;;;16.23;9.52;;;;;;;-0.66;100.00;101737.97;5252339;28;20140;-65
2022/04/04 00:49:49;;;;;;;13.88;9.32;;;;;;;-0.71;100.00;101734.56;5244272;28;20308;-65
2022/04/04 00:52:21;;;;;;;13.80;9.57;;;;;;;-0.68;100.00;101739.75;5247279;28;20036;-65
2022/04/04 00:54:52;;;;;;;14.32;9.50;;;;;;;-0.63;100.00;101723.97;5254947;28;20029;-65
2022/04/04 00:57:24;;;;;;;13.68;9.98;;;;;;;-0.61;100.00;101724.81;5248140;28;20407;-65
2022/04/04 00:59:55;;;;;;;16.17;10.15;;;;;;;-0.66;100.00;101726.63;5251403;28;20057;-65
2022/04/04 01:02:26;;;;;;;13.65;9.48;;;;;;;-0.69;100.00;101717.06;5253142;28;20090;-65
2022/04/04 01:04:58;;;;;;;13.93;9.55;;;;;;;-0.67;100.00;101712.66;5247972;28;20021;-65
2022/04/04 01:07:29;;;;;;;17.50;10.10;;;;;;;-0.67;100.00;101710.03;5242652;28;20040;-65
2022/04/04 01:10:01;;;;;;;16.23;10.23;;;;;;;-0.66;100.00;101705.66;5241501;28;20030;-65
2022/04/04 01:12:32;;;;;;;14.38;9.70;;;;;;;-0.68;100.00;101699.56;5251915;28;20029;-65
2022/04/04 01:15:04;;;;;;;15.48;10.38;;;;;;;-0.70;100.00;101690.88;5255931;28;20112;-65
2022/04/04 01:17:36;;;;;;;15.35;9.38;;;;;;;-0.67;100.00;101686.47;5254099;28;20095;-65
2022/04/04 01:20:07;;;;;;;12.45;9.10;;;;;;;-0.65;100.00;101689.06;5246859;28;20414;-65
2022/04/04 01:22:39;;;;;;;16.75;9.60;;;;;;;-0.70;100.00;101683.00;5243429;28;20484;-65
2022/04/04 01:25:10;;;;;;;15.48;9.07;;;;;;;-0.66;100.00;101669.81;5238308;28;20110;-65
2022/04/04 01:27:45;;;;;;;14.98;9.45;;;;;;;-0.64;100.00;101667.19;5249592;28;20078;-65
2022/04/04 01:30:16;;;;;;;16.27;9.27;;;;;;;-0.61;100.00;101665.38;5242197;28;20608;-65
2022/04/04 01:32:49;;;;;;;13.68;9.93;;;;;;;-0.57;100.00;101663.59;5249259;28;20116;-65
2022/04/04 01:35:21;;;;;;;15.38;9.55;;;;;;;-0.61;100.00;101652.28;5245365;28;20025;-65
2022/04/04 01:37:52;;;;;;;14.55;9.45;;;;;;;-0.66;100.00;101646.25;5248959;28;20025;-65
2022/04/04 01:40:24;;;;;;;14.73;9.40;;;;;;;-0.60;100.00;101647.91;5252069;28;20028;-65
2022/04/04 01:42:56;;;;;;;15.93;9.50;;;;;;;-0.55;100.00;101637.34;5242237;28;20124;-65
2022/04/04 01:48:17;;;;;;;16.13;9.63;;;;;;;-0.55;100.00;101625.09;5246191;28;20116;-65
2022/04/04 01:50:48;;;;;;;13.35;9.27;;;;;;;-0.61;100.00;101615.59;5239114;28;20029;-65
2022/04/04 01:53:25;;;;;;;12.75;8.93;;;;;;;-0.53;100.00;101633.81;5246381;28;20410;-65
2022/04/04 01:56:00;;;;;;;13.02;9.68;;;;;;;-0.56;100.00;101617.25;5245414;28;20091;-65
2022/04/04 01:58:33;;;;;;;13.57;8.93;;;;;;;-0.60;100.00;101606.81;5242129;28;20033;-65
2022/04/04 02:01:24;;;;;;;13.27;9.40;;;;;;;-0.53;100.00;101597.09;5243585;28;20043;-65
2022/04/04 02:03:56;;;;;;;16.42;9.43;;;;;;;-0.50;100.00;101598.78;5251681;28;20036;-65
2022/04/04 02:06:28;;;;;;;15.70;9.40;;;;;;;-0.51;100.00;101597.09;5254196;28;20035;-65
2022/04/04 02:08:59;;;;;;;14.32;8.98;;;;;;;-0.52;100.00;101588.31;5240373;28;20061;-65
2022/04/04 02:11:31;;;;;;;13.07;8.70;;;;;;;-0.50;100.00;101583.06;5250530;28;20075;-65
2022/04/04 02:14:03;;;;;;;11.90;7.80;;;;;;;-0.46;100.00;101579.50;5251911;28;20048;-65
2022/04/04 02:16:34;;;;;;;13.15;8.15;;;;;;;-0.42;100.00;101583.81;5244779;28;20124;-65
2022/04/04 02:19:06;;;;;;;12.98;7.78;;;;;;;-0.42;100.00;101583.81;5245599;28;20124;-65
2022/04/04 02:21:37;;;;;;;11.85;7.70;;;;;;;-0.39;100.00;101570.63;5246218;28;20067;-65
2022/04/04 02:24:08;;;;;;;10.95;7.82;;;;;;;-0.34;100.00;101568.78;5251072;28;20037;-65
2022/04/04 02:26:40;;;;;;;14.05;8.23;;;;;;;-0.31;100.00;101568.72;5248536;28;20114;-65
2022/04/04 02:29:11;;;;;;;12.73;8.43;;;;;;;-0.29;100.00;101561.69;5248174;28;20123;-65
2022/04/04 02:31:42;;;;;;;12.98;8.18;;;;;;;-0.21;100.00;101549.28;5244145;28;20459;-65
2022/04/04 02:34:14;;;;;;;14.07;7.85;;;;;;;-0.16;100.00;101558.81;5244585;28;20143;-65
2022/04/04 02:36:45;;;;;;;11.15;7.75;;;;;;;-0.11;100.00;101536.00;5259101;28;20097;-65
2022/04/04 02:39:16;;;;;;;11.27;7.85;;;;;;;-0.06;100.00;101542.00;5245748;28;20044;-66
2022/04/04 02:41:47;;;;;;;12.73;7.72;;;;;;;-0.05;100.00;101535.84;5244413;28;20055;-65
2022/04/04 02:44:19;;;;;;;11.20;8.02;;;;;;;-0.03;100.00;101540.16;5248601;28;20025;-65
2022/04/04 02:46:50;;;;;;;12.90;7.85;;;;;;;0.03;100.00;101533.94;5246541;28;20021;-65
2022/04/04 02:49:23;;;;;;;11.88;7.88;;;;;;;0.05;100.00;101534.75;5247702;28;20589;-65
2022/04/04 02:51:55;;;;;;;13.10;8.13;;;;;;;0.09;100.00;101525.06;5247447;28;20032;-65
2022/04/04 02:54:27;;;;;;;11.95;7.85;;;;;;;0.11;100.00;101518.00;5249792;28;20432;-65
2022/04/04 02:56:58;;;;;;;12.95;7.65;;;;;;;0.15;100.00;101507.44;5241715;28;20060;-65
2022/04/04 02:59:29;;;;;;;12.52;7.88;;;;;;;0.20;100.00;101507.31;5240181;28;20032;-65
2022/04/04 03:02:00;;;;;;;10.90;7.22;;;;;;;0.17;99.63;101495.16;5246407;28;20033;-65
2022/04/04 03:04:32;;;;;;;11.73;7.60;;;;;;;0.24;100.00;101489.75;5254324;28;20056;-65
2022/04/04 03:07:04;;;;;;;12.57;7.15;;;;;;;0.26;99.85;101487.94;5250487;28;20087;-65
2022/04/04 03:09:37;;;;;;;12.30;7.55;;;;;;;0.28;100.00;101483.53;5253982;28;20032;-65
2022/04/04 03:12:09;;;;;;;11.70;7.38;;;;;;;0.30;99.70;101473.84;5247103;28;20041;-65
2022/04/04 03:14:40;;;;;;;11.25;7.05;;;;;;;0.32;99.84;101467.66;5238907;28;20029;-65
2022/04/04 03:17:11;;;;;;;12.15;7.35;;;;;;;0.37;99.36;101464.94;5244511;28;20064;-65
2022/04/04 03:19:42;;;;;;;11.20;6.93;;;;;;;0.37;99.45;101455.28;5244052;28;20032;-65
2022/04/04 03:22:14;;;;;;;11.73;7.00;;;;;;;0.41;99.54;101458.72;5251044;28;20041;-65
2022/04/04 03:24:46;;;;;;;9.88;7.00;;;;;;;0.43;99.70;101449.03;5255872;28;20037;-65
2022/04/04 03:27:17;;;;;;;10.93;6.63;;;;;;;0.44;99.31;101447.25;5248700;28;20033;-65
2022/04/04 03:29:48;;;;;;;12.38;7.43;;;;;;;0.48;99.58;101444.53;5247013;28;20029;-65
2022/04/04 03:32:20;;;;;;;13.18;7.05;;;;;;;0.50;99.76;101434.88;5249213;28;20029;-65
2022/04/04 03:34:51;;;;;;;12.07;6.97;;;;;;;0.52;99.73;101437.44;5249226;28;20033;-65
2022/04/04 03:37:22;;;;;;;10.43;6.82;;;;;;;0.55;99.51;101427.72;5247119;28;20033;-65
2022/04/04 03:39:53;;;;;;;13.73;7.13;;;;;;;0.57;99.19;101427.69;5244815;28;20036;-65
2022/04/04 03:42:25;;;;;;;12.95;6.80;;;;;;;0.60;99.69;101427.59;5260130;28;20406;-65
2022/04/04 03:44:56;;;;;;;10.50;7.00;;;;;;;0.63;99.72;101413.53;5248860;28;20106;-65
2022/04/04 03:47:27;;;;;;;14.85;7.75;;;;;;;0.66;99.62;101408.22;5249758;28;20116;-66
2022/04/04 03:49:59;;;;;;;11.70;7.15;;;;;;;0.70;99.60;101410.69;5249226;28;20032;-65
2022/04/04 03:52:30;;;;;;;10.85;7.18;;;;;;;0.72;99.69;101393.13;5247763;28;20063;-65
2022/04/04 03:55:03;;;;;;;11.32;7.28;;;;;;;0.77;99.68;101403.53;5248187;28;20060;-65
2022/04/04 03:57:35;;;;;;;12.77;7.43;;;;;;;0.79;99.67;101393.84;5250576;28;20369;-65
2022/04/04 04:00:09;;;;;;;17.42;7.43;;;;;;;0.80;98.90;101387.69;5253211;28;20039;-65
2022/04/04 04:02:40;;;;;;;11.70;6.93;;;;;;;0.85;98.83;101396.31;5244211;28;20040;-65
2022/04/04 04:05:12;;;;;;;12.82;6.97;;;;;;;0.86;99.29;101384.88;5244258;28;20044;-65
2022/04/04 04:07:44;;;;;;;11.95;7.30;;;;;;;0.85;99.09;101379.69;5254507;28;20033;-65
2022/04/04 04:10:15;;;;;;;13.13;7.70;;;;;;;0.89;99.51;101374.28;5247587;28;20122;-65
2022/04/04 04:12:47;;;;;;;10.30;6.68;;;;;;;0.88;99.29;101369.06;5239156;28;20033;-65
2022/04/04 04:15:21;;;;;;;12.13;7.82;;;;;;;0.92;99.44;101368.09;5241760;28;20064;-65
2022/04/04 04:17:52;;;;;;;12.20;7.80;;;;;;;0.92;99.77;101363.72;5247573;28;20039;-65
2022/04/04 04:20:25;;;;;;;13.93;7.93;;;;;;;0.97;99.40;101351.28;5242731;28;20029;-65
2022/04/04 04:23:03;;;;;;;12.13;7.88;;;;;;;0.98;99.93;101357.44;5244777;28;20458;-65
2022/04/04 04:25:36;;;;;;;11.38;7.40;;;;;;;1.01;99.36;101359.94;5236856;28;20514;-65
2022/04/04 04:28:09;;;;;;;12.63;7.85;;;;;;;1.01;99.62;101344.19;5247870;28;20104;-65
2022/04/04 04:30:41;;;;;;;14.43;9.00;;;;;;;1.06;100.00;101341.44;5243536;28;20066;-65
2022/04/04 04:33:12;;;;;;;15.77;8.20;;;;;;;1.05;99.82;101335.31;5250008;28;20040;-65
2022/04/04 04:35:44;;;;;;;13.70;7.88;;;;;;;1.05;99.66;101331.81;5247270;28;20029;-65
2022/04/04 04:38:15;;;;;;;15.45;9.20;;;;;;;1.09;99.33;101330.81;5248657;28;20106;-65
2022/04/04 04:40:46;;;;;;;15.25;9.15;;;;;;;1.12;99.51;101317.59;5246741;28;20466;-65
2022/04/04 04:43:17;;;;;;;14.30;8.80;;;;;;;1.17;99.81;101318.34;5246114;28;20033;-65
2022/04/04 04:45:49;;;;;;;12.10;8.32;;;;;;;1.24;99.45;101300.59;5238676;28;20029;-65
2022/04/04 04:48:21;;;;;;;14.45;8.35;;;;;;;1.26;99.19;101299.63;5248104;28;20437;-65
2022/04/04 04:50:52;;;;;;;13.32;8.70;;;;;;;1.29;99.07;101298.72;5241913;28;20505;-65
2022/04/04 04:53:23;;;;;;;13.85;8.40;;;;;;;1.28;99.53;101292.56;5252834;28;20048;-65
2022/04/04 04:55:55;;;;;;;13.77;8.98;;;;;;;1.32;99.51;101295.97;5243163;28;20178;-65
2022/04/04 04:58:26;;;;;;;14.52;8.55;;;;;;;1.35;99.03;101288.84;5246727;28;20108;-65
2022/04/04 05:00:57;;;;;;;13.88;8.63;;;;;;;1.40;98.83;101282.56;5247054;28;20032;-65
2022/04/04 05:03:28;;;;;;;16.33;9.15;;;;;;;1.41;98.53;101279.06;5248381;28;20068;-65
2022/04/04 05:06:00;;;;;;;15.63;9.20;;;;;;;1.45;99.03;101264.91;5247805;28;20499;-65
2022/04/04 05:08:31;;;;;;;13.48;8.98;;;;;;;1.51;98.54;101269.97;5254702;28;20781;-65
2022/04/04 05:11:03;;;;;;;15.85;9.90;;;;;;;1.54;98.68;101262.84;5242660;28;20029;-65
2022/04/04 05:13:35;;;;;;;15.00;9.15;;;;;;;1.57;98.56;101264.50;5249486;28;20029;-65
2022/04/04 05:16:10;;;;;;;16.30;9.18;;;;;;;1.61;98.30;101245.09;5243616;28;20045;-65
2022/04/04 05:18:44;;;;;;;17.52;8.60;;;;;;;1.66;98.40;101251.06;5231927;28;20558;-65
2022/04/04 05:21:15;;;;;;;14.70;9.50;;;;;;;1.71;97.85;101243.03;5246352;28;20468;-65
2022/04/04 05:23:47;;;;;;;13.55;9.25;;;;;;;1.74;97.66;101241.13;5240339;28;20030;-65
2022/04/04 05:26:18;;;;;;;14.02;8.98;;;;;;;1.79;98.08;101233.09;5243366;28;20053;-65
2022/04/04 05:28:50;;;;;;;13.73;9.90;;;;;;;1.85;97.94;101230.25;5251170;28;20072;-66
2022/04/04 05:31:21;;;;;;;18.27;10.00;;;;;;;1.90;97.67;101217.81;5253918;28;20029;-65
2022/04/04 05:33:54;;;;;;;16.25;11.05;;;;;;;1.94;97.48;101215.94;5245688;28;20033;-65
2022/04/04 05:36:27;;;;;;;15.73;10.40;;;;;;;1.99;97.02;101210.50;5246544;28;20501;-65
2022/04/04 05:38:58;;;;;;;17.13;9.85;;;;;;;2.02;97.15;101210.41;5251680;28;20029;-66
2022/04/04 05:41:30;;;;;;;17.17;9.82;;;;;;;2.08;97.48;101205.78;5243775;28;20421;-65
2022/04/04 05:44:01;;;;;;;15.07;9.60;;;;;;;2.13;96.60;101197.72;5258839;28;20041;-65
2022/04/04 05:46:34;;;;;;;14.93;9.85;;;;;;;2.19;96.70;101208.03;5241034;28;20038;-65
2022/04/04 05:49:05;;;;;;;16.00;9.55;;;;;;;2.22;96.04;101193.88;5247215;28;20372;-65
2022/04/04 05:51:37;;;;;;;16.75;10.30;;;;;;;2.25;96.69;101202.53;5245855;28;20029;-66
2022/04/04 05:54:09;;;;;;;14.40;9.55;;;;;;;2.32;96.29;101196.16;5253167;28;20107;-65
2022/04/04 05:56:40;;;;;;;13.57;8.98;;;;;;;2.37;95.29;101189.84;5234600;28;20360;-65
2022/04/04 05:59:13;;;;;;;14.60;9.85;;;;;;;2.40;95.52;101174.81;5247885;28;20043;-65
2022/04/04 06:01:44;;;;;;;14.90;9.27;;;;;;;2.47;95.67;101170.16;5240255;28;20502;-66
2022/04/04 06:04:15;;;;;;;14.80;10.02;;;;;;;2.52;95.38;101166.41;5246684;28;20032;-65
2022/04/04 06:06:47;;;;;;;13.70;9.18;;;;;;;2.59;95.35;101168.81;5247071;28;20032;-65
2022/04/04 06:09:18;;;;;;;14.75;9.20;;;;;;;2.64;94.11;101169.50;5240283;28;20028;-65
2022/04/04 06:11:50;;;;;;;14.57;9.88;;;;;;;2.67;93.83;101159.72;5240450;28;20037;-65
2022/04/04 06:14:22;;;;;;;18.17;9.13;;;;;;;2.73;94.17;101156.84;5243353;28;20033;-65
2022/04/04 06:16:53;;;;;;;16.05;10.05;;;;;;;2.77;93.39;101160.22;5233625;28;20053;-65
2022/04/04 06:19:27;;;;;;;15.70;9.35;;;;;;;2.84;93.74;101152.91;5232331;28;20033;-65
2022/04/04 06:21:58;;;;;;;17.30;10.40;;;;;;;2.88;93.04;101147.47;5232050;28;20091;-65
2022/04/04 06:24:31;;;;;;;15.85;10.10;;;;;;;2.96;92.59;101146.34;5235310;28;20147;-65
2022/04/04 06:27:02;;;;;;;17.27;9.95;;;;;;;3.01;92.24;101147.88;5236371;28;20033;-65
2022/04/04 06:29:33;;;;;;;14.60;9.38;;;;;;;3.05;92.42;101135.38;5232193;28;20029;-65
2022/04/04 06:32:05;;;;;;;14.63;10.23;;;;;;;3.14;92.59;101138.53;5231914;28;20053;-65
2022/04/04 06:34:37;;;;;;;14.48;9.77;;;;;;;3.23;91.97;101131.16;5240780;28;20021;-65
2022/04/04 06:37:10;;;;;;;18.85;10.60;;;;;;;3.32;91.17;101122.88;5231694;28;20609;-65
2022/04/04 06:39:42;;;;;;;16.95;9.30;;;;;;;3.47;91.11;101132.78;5242631;28;20032;-65
2022/04/04 06:42:14;;;;;;;16.13;9.73;;;;;;;3.61;90.01;101128.69;5238798;28;20458;-65
2022/04/04 06:44:45;;;;;;;18.30;9.95;;;;;;;3.75;90.54;101104.34;5236811;28;20029;-65
2022/04/04 06:47:16;;;;;;;12.63;9.30;;;;;;;3.82;88.69;101113.72;5239994;28;20423;-65
2022/04/04 06:49:48;;;;;;;13.65;8.95;;;;;;;3.87;88.72;101093.22;5239040;28;20551;-65
2022/04/04 06:52:19;;;;;;;14.23;8.80;;;;;;;3.88;87.19;101084.41;5238625;28;20029;-65
2022/04/04 06:54:51;;;;;;;14.95;9.05;;;;;;;3.92;87.78;101086.81;5239083;28;20071;-65
2022/04/04 06:57:25;;;;;;;14.82;9.18;;;;;;;4.02;87.93;101086.41;5243317;28;20532;-65
2022/04/04 06:59:57;;;;;;;15.63;8.50;;;;;;;4.10;86.06;101081.63;5232898;28;20047;-65
2022/04/04 07:02:28;;;;;;;14.80;8.70;;;;;;;4.18;86.40;101081.28;5235856;28;20025;-65
2022/04/04 07:04:59;;;;;;;14.45;9.18;;;;;;;4.21;85.45;101067.94;5244098;28;20029;-65
2022/04/04 07:07:35;;;;;;;16.65;9.32;;;;;;;4.31;85.65;101063.94;5246199;28;20075;-65
2022/04/04 07:10:06;;;;;;;14.02;7.82;;;;;;;4.42;85.71;101060.81;5237150;28;20028;-65
2022/04/04 07:12:41;;;;;;;16.08;8.52;;;;;;;4.53;83.73;101055.03;5236006;28;20029;-65
2022/04/04 07:15:13;;;;;;;15.40;8.32;;;;;;;4.60;83.96;101054.66;5238631;28;20380;-65
2022/04/04 07:17:45;;;;;;;14.00;8.30;;;;;;;4.65;84.19;101049.13;5240040;28;20066;-65
2022/04/04 07:20:19;;;;;;;14.30;8.82;;;;;;;4.74;84.56;101034.59;5242315;28;20120;-66
2022/04/04 07:22:51;;;;;;;13.93;9.05;;;;;;;4.78;83.75;101034.38;5236726;28;20033;-65
2022/04/04 07:25:22;;;;;;;14.32;8.55;;;;;;;4.82;82.16;101029.81;5239135;28;20054;-65
2022/04/04 07:27:53;;;;;;;18.98;10.18;;;;;;;4.86;83.05;101007.56;5241769;28;20090;-65
2022/04/04 07:30:26;;;;;;;17.17;8.65;;;;;;;4.87;83.04;101012.78;5285331;28;20533;-65
2022/04/04 07:32:57;;;;;;;12.40;8.25;;;;;;;4.94;82.48;101010.69;5240553;28;20045;-65
2022/04/04 07:35:28;;;;;;;13.02;8.13;;;;;;;5.02;81.62;101016.44;5235783;28;20403;-65
2022/04/04 07:38:00;;;;;;;15.65;9.05;;;;;;;5.05;80.65;101007.50;5250579;28;20474;-65
2022/04/04 07:40:31;;;;;;;14.68;8.48;;;;;;;5.09;80.79;101009.06;5250477;28;20044;-65
2022/04/04 07:43:02;;;;;;;13.98;8.40;;;;;;;5.20;81.70;101008.50;5245670;28;20473;-65
2022/04/04 07:45:34;;;;;;;17.95;8.43;;;;;;;5.24;79.61;100994.19;5250686;28;20569;-65
2022/04/04 07:48:06;;;;;;;14.95;8.25;;;;;;;5.22;79.20;100996.06;5249826;28;20497;-65
2022/04/04 07:50:38;;;;;;;16.15;8.73;;;;;;;5.25;79.40;100987.94;5252035;28;20021;-65
2022/04/04 07:53:11;;;;;;;16.40;8.20;;;;;;;5.28;79.44;100991.28;5246810;28;20078;-65
2022/04/04 07:55:42;;;;;;;16.65;9.15;;;;;;;5.37;81.48;100982.03;5248772;28;20071;-65
2022/04/04 07:58:16;;;;;;;14.57;9.07;;;;;;;5.48;81.41;100970.88;5249289;28;20116;-65
2022/04/04 08:00:47;;;;;;;17.02;8.90;;;;;;;5.59;81.62;100965.00;5245617;28;20025;-65
2022/04/04 08:03:23;;;;;;;13.30;9.00;;;;;;;5.66;79.15;100956.66;5241867;28;20032;-65
2022/04/04 08:05:54;;;;;;;16.23;8.73;;;;;;;5.76;78.84;100958.81;5247482;28;20489;-65
2022/04/04 08:08:26;;;;;;;14.32;8.43;;;;;;;5.88;78.58;100958.13;5247767;28;20119;-65
2022/04/04 08:11:02;;;;;;;11.32;7.90;;;;;;;6.00;77.98;100949.53;5245422;28;20017;-65
2022/04/04 08:13:34;;;;;;;11.90;8.38;;;;;;;6.11;77.19;100938.34;5247244;28;20033;-65
2022/04/04 08:16:05;;;;;;;14.07;8.43;;;;;;;6.22;77.32;100943.03;5249002;28;20084;-65
2022/04/04 08:18:36;;;;;;;16.23;8.75;;;;;;;6.28;77.34;100938.22;5247350;28;20057;-65
2022/04/04 08:21:08;;;;;;;12.23;8.02;;;;;;;6.32;74.29;100925.66;5250305;28;20024;-65
2022/04/04 08:23:39;;;;;;;14.57;7.93;;;;;;;6.36;74.52;100926.34;5236983;28;20057;-65
2022/04/04 08:26:10;;;;;;;10.10;6.80;;;;;;;6.40;74.49;100926.06;5241592;28;20021;-65
2022/04/04 08:28:42;;;;;;;15.10;7.45;;;;;;;6.44;73.58;100924.09;5247068;28;20577;-65
2022/04/04 08:31:13;;;;;;;12.50;7.13;;;;;;;6.54;73.73;100914.69;5247482;28;20354;-65
2022/04/04 08:33:44;;;;;;;12.05;7.15;;;;;;;6.55;73.79;100921.66;5247076;28;20429;-65
2022/04/04 08:36:16;;;;;;;14.35;6.80;;;;;;;6.59;72.03;100904.63;5241867;28;20036;-65
2022/04/04 08:38:47;;;;;;;14.73;7.30;;;;;;;6.64;72.24;100893.78;5245571;28;20025;-65
2022/04/04 08:41:21;;;;;;;15.57;7.63;;;;;;;6.71;71.10;100900.41;5250342;28;20139;-65
2022/04/04 08:43:57;;;;;;;14.60;6.93;;;;;;;6.85;71.72;100887.19;5246089;28;20037;-66
2022/04/04 08:46:29;;;;;;;16.13;7.75;;;;;;;6.93;70.63;100891.19;5246032;28;20025;-65
2022/04/04 08:49:05;;;;;;;19.90;7.97;;;;;;;6.98;71.09;100876.69;5245107;28;20501;-65
2022/04/04 08:51:37;;;;;;;18.95;7.90;;;;;;;7.03;70.71;100879.91;5242963;28;20030;-65
2022/04/04 08:54:08;;;;;;;14.30;7.43;;;;;;;7.09;70.40;100889.28;5245206;28;20532;-65
2022/04/04 08:56:39;;;;;;;15.32;8.00;;;;;;;7.07;69.55;100872.63;5255400;28;20025;-65
2022/04/04 08:59:11;;;;;;;19.33;8.38;;;;;;;7.04;69.62;100876.31;5248480;28;20307;-65
2022/04/04 09:01:42;;;;;;;11.75;6.80;;;;;;;6.93;70.12;100868.16;5246960;28;20031;-65
2022/04/04 09:04:14;;;;;;;12.30;6.60;;;;;;;6.86;70.89;100861.50;5253148;28;20029;-65
2022/04/04 09:07:02;;;;;;;14.77;7.30;;;;;;;6.82;72.04;100865.31;5249315;28;20029;-65
2022/04/04 09:09:41;;;;;;;18.42;7.30;;;;;;;6.73;72.38;100860.53;5247231;28;20021;-65
2022/04/04 09:12:15;;;;;;;13.70;7.70;;;;;;;6.64;72.93;100840.75;5252697;28;20029;-65
2022/04/04 09:14:47;;;;;;;10.63;7.88;;;;;;;6.51;73.41;100877.75;5249338;28;20478;-65
2022/04/04 09:17:21;;;;;;;12.40;7.47;;;;;;;6.55;74.48;100858.06;5252524;28;20075;-65
2022/04/04 09:19:53;;;;;;;13.60;7.30;;;;;;;6.47;73.94;100845.25;5252140;28;20040;-65
2022/04/04 09:22:25;;;;;;;15.43;8.05;;;;;;;6.38;74.50;100859.03;5252171;28;20383;-65
2022/04/04 09:25:02;;;;;;;13.70;7.82;;;;;;;6.36;74.69;100844.19;5254508;28;20144;-65
2022/04/04 09:27:36;;;;;;;18.67;7.97;;;;;;;6.39;75.17;100817.53;5253857;28;20487;-65
2022/04/04 09:30:19;;;;;;;20.60;9.15;;;;;;;6.46;76.39;100832.97;5254342;28;20031;-65
2022/04/04 09:32:51;;;;;;;15.50;8.38;;;;;;;6.42;76.44;100831.44;5249235;28;20079;-65
2022/04/04 09:35:28;;;;;;;13.35;8.38;;;;;;;6.43;79.11;100822.53;5283465;28;20356;-65
2022/04/04 09:37:59;;;;;;;12.27;7.85;;;;;;;6.38;80.14;100829.91;5249821;28;20028;-65
2022/04/04 09:40:32;;;;;;;15.98;9.07;;;;;;;6.25;82.18;100824.50;5248778;28;20113;-65
2022/04/04 09:43:04;;;;;;;16.57;9.40;;;;;;;6.17;84.70;100825.88;5254029;28;20039;-65
2022/04/04 09:45:35;;;;;;;16.23;8.90;;;;;;;6.11;83.93;100818.28;5252951;28;20295;-65
2022/04/04 09:48:08;;;;;;;13.50;8.73;;;;;;;5.97;84.58;100813.78;5250814;28;20024;-65
2022/04/04 09:50:51;;;;;;;15.00;9.13;;;;;;;5.99;85.98;100815.41;5248787;28;20300;-65
2022/04/04 09:53:25;;;;;;;14.18;8.98;;;;;;;5.92;86.16;100813.16;5249584;28;20033;-66
2022/04/04 09:56:00;;;;;;;11.63;9.02;;;;;;;5.90;85.80;100807.94;5252997;28;20029;-65
2022/04/04 09:58:32;;;;;;;13.13;9.07;;;;;;;5.86;86.89;100809.06;5251785;28;20370;-65
2022/04/04 10:01:04;;;;;;;17.00;9.43;;;;;;;5.78;87.63;100803.38;5251141;28;20036;-66
2022/04/04 10:03:37;;;;;;;13.48;9.63;;;;;;;5.72;88.75;100811.66;5254341;28;20450;-65
2022/04/04 10:06:10;;;;;;;15.07;9.85;;;;;;;5.65;89.96;100804.06;5248553;28;20039;-66
2022/04/04 10:08:43;;;;;;;15.25;9.70;;;;;;;5.64;89.40;100794.41;5254628;28;20109;-65
2022/04/04 10:11:14;;;;;;;17.52;10.35;;;;;;;5.65;90.88;100790.81;5252761;28;20519;-65
2022/04/04 10:13:47;;;;;;;14.70;9.52;;;;;;;5.65;91.38;100796.13;5255718;28;20108;-65
2022/04/04 10:16:19;;;;;;;17.80;10.45;;;;;;;5.64;92.35;100783.00;5254312;28;20273;-65
2022/04/04 10:18:53;;;;;;;15.27;9.52;;;;;;;5.59;92.22;100788.53;5254734;28;20029;-65
2022/04/04 10:21:26;;;;;;;17.42;10.85;;;;;;;5.59;94.74;100782.38;5253514;28;20056;-65
2022/04/04 10:24:00;;;;;;;14.82;10.30;;;;;;;5.61;94.83;100775.22;5255863;28;20033;-65
2022/04/04 10:26:34;;;;;;;15.90;10.85;;;;;;;5.56;95.30;100785.19;5256326;28;20115;-65
2022/04/04 10:29:10;;;;;;;17.23;10.13;;;;;;;5.49;95.48;100785.56;5253697;28;20036;-65
2022/04/04 10:31:43;;;;;;;17.52;11.40;;;;;;;5.44;97.03;100784.94;5250108;28;20438;-66
2022/04/04 10:34:20;;;;;;;16.67;11.27;;;;;;;5.42;97.92;100781.53;5255854;28;20033;-65
2022/04/04 10:37:06;;;;;;;16.48;11.52;;;;;;;5.44;98.93;100777.00;5250289;28;20047;-65
2022/04/04 10:39:44;;;;;;;17.63;11.35;;;;;;;5.37;99.78;100780.09;5252096;28;20035;-66
2022/04/04 10:42:24;;;;;;;17.23;12.23;;;;;;;5.33;100.00;100781.19;5249786;28;20021;-66
2022/04/04 10:45:09;;;;;;;17.23;12.25;;;;;;;5.27;100.00;100793.84;5251085;28;20068;-66
2022/04/04 10:47:42;;;;;;;21.33;13.30;;;;;;;5.26;100.00;100772.75;5253670;28;20037;-66
2022/04/04 10:50:21;;;;;;;19.85;13.00;;;;;;;5.30;100.00;100782.22;5248547;28;20021;-66
2022/04/04 10:52:53;;;;;;;20.63;12.73;;;;;;;5.23;100.00;100776.41;5247455;28;20030;-66
2022/04/04 10:55:27;;;;;;;16.75;12.15;;;;;;;5.22;100.00;100771.22;5255769;28;20047;-66
2022/04/04 10:58:17;;;;;;;;;;;;;;;5.22;100.00;100771.22;5253498;28;20029;-66
2022/04/04 11:01:09;;;;;;;19.13;12.25;;;;;;;5.23;100.00;100771.13;5249484;28;19964;-66
2022/04/04 11:03:41;;;;;;;18.98;12.93;;;;;;;5.26;100.00;100746.31;5249903;28;20025;-66
2022/04/04 11:09:05;;;;;;;18.50;13.40;;;;;;;5.22;100.00;100742.13;5249852;28;20036;-67
2022/04/04 11:11:54;;;;;;;18.63;13.32;;;;;;;5.24;100.00;100750.84;5253114;28;20027;-66
2022/04/04 11:17:25;;;;;;;18.60;13.63;;;;;;;5.08;100.00;100742.88;5250429;28;20083;-66
2022/04/04 11:20:00;;;;;;;17.30;13.05;;;;;;;5.00;100.00;100740.66;5251731;28;20170;-66
2022/04/04 11:22:36;;;;;;;20.42;14.25;;;;;;;4.98;100.00;100733.75;5254857;28;20033;-66
2022/04/04 11:25:13;;;;;;;18.88;14.52;;;;;;;4.97;100.00;100727.63;5248211;28;20052;-66
2022/04/04 11:27:48;;;;;;;21.23;15.20;;;;;;;4.95;100.00;100741.84;5247914;28;20037;-66
2022/04/04 11:30:27;;;;;;;18.67;15.15;;;;;;;4.99;100.00;100741.59;5247110;28;20052;-66
2022/04/04 11:32:59;;;;;;;19.67;14.00;;;;;;;4.82;100.00;100739.88;5246643;28;20031;-66
2022/04/04 11:35:32;;;;;;;21.00;14.35;;;;;;;4.84;100.00;100743.28;5250513;28;20029;-66
2022/04/04 11:38:07;;;;;;;19.65;15.73;;;;;;;4.83;100.00;100725.75;5253413;28;20032;-66
2022/04/04 11:43:32;;;;;;;21.15;16.25;;;;;;;4.77;100.00;100714.63;5244233;28;21702;-66
2022/04/04 11:46:14;;;;;;;25.70;17.52;;;;;;;4.77;100.00;100730.50;5248125;28;20059;-67
2022/04/04 11:48:51;;;;;;;22.65;16.70;;;;;;;4.72;100.00;100713.09;5246785;28;20454;-66
2022/04/04 11:54:24;;;;;;;23.38;16.00;;;;;;;4.71;100.00;100711.38;5245551;28;20032;-66
2022/04/04 11:56:57;;;;;;;20.75;16.35;;;;;;;4.69;100.00;100712.41;5253999;28;20452;-66
2022/04/04 11:59:29;;;;;;;20.88;14.98;;;;;;;4.65;100.00;100689.72;5253995;28;20152;-66